sensor_id;sensor_type;location;lat;lon;timestamp;pressure;altitude;pressure_sealevel;temperature;humidity
5356;BME280;70449;52.486;13.386;2023-10-13T00:00:26;100798.09;;;17.23;100.00
5356;BME280;70449;52.486;13.386;2023-10-13T00:02:57;100795.88;;;17.38;100.00
5356;BME280;70449;52.486;13.386;2023-10-13T00:05:28;100784.94;;;17.20;100.00
5356;BME280;70449;52.486;13.386;2023-10-13T00:07:58;100779.84;;;17.22;100.00
5356;BME280;70449;52.486;13.386;2023-10-13T00:10:28;100774.84;;;17.16;100.00
5356;BME280;70449;52.486;13.386;2023-10-13T00:12:55;100769.97;;;17.34;100.00
5356;BME280;70449;52.486;13.386;2023-10-13T00:15:31;100778.53;;;17.83;100.00
5356;BME280;70449;52.486;13.386;2023-10-13T00:18:05;100773.91;;;17.12;100.00
5356;BME280;70449;52.486;13.386;2023-10-13T00:20:40;100773.44;;;17.31;100.00
5356;BME280;70449;52.486;13.386;2023-10-13T00:23:16;100764.81;;;16.82;100.00
5356;BME280;70449;52.486;13.386;2023-10-13T00:25:48;100756.06;;;17.21;100.00
5356;BME280;70449;52.486;13.386;2023-10-13T00:28:23;100761.22;;;17.32;100.00
5356;BME280;70449;52.486;13.386;2023-10-13T00:30:52;100766.06;;;17.14;100.00
5356;BME280;70449;52.486;13.386;2023-10-13T00:33:26;100773.78;;;17.29;100.00
5356;BME280;70449;52.486;13.386;2023-10-13T00:35:54;100763.16;;;17.52;100.00
5356;BME280;70449;52.486;13.386;2023-10-13T00:38:25;100772.69;;;17.21;100.00
5356;BME280;70449;52.486;13.386;2023-10-13T00:40:53;100756.34;;;17.50;100.00
5356;BME280;70449;52.486;13.386;2023-10-13T00:43:22;100753.03;;;17.68;100.00
5356;BME280;70449;52.486;13.386;2023-10-13T00:46:00;100749.19;;;17.28;100.00
5356;BME280;70449;52.486;13.386;2023-10-13T00:48:36;100750.38;;;17.39;100.00
5356;BME280;70449;52.486;13.386;2023-10-13T00:51:10;100746.34;;;16.94;100.00
5356;BME280;70449;52.486;13.386;2023-10-13T00:53:50;100751.91;;;16.56;100.00
5356;BME280;70449;52.486;13.386;2023-10-13T00:56:17;100747.91;;;16.74;100.00
5356;BME280;70449;52.486;13.386;2023-10-13T00:58:48;100750.47;;;17.09;100.00
5356;BME280;70449;52.486;13.386;2023-10-13T01:01:18;100741.41;;;17.21;100.00
5356;BME280;70449;52.486;13.386;2023-10-13T01:03:46;100741.41;;;17.21;100.00
5356;BME280;70449;52.486;13.386;2023-10-13T01:06:18;100745.13;;;17.04;100.00
5356;BME280;70449;52.486;13.386;2023-10-13T01:08:47;100754.59;;;17.24;100.00
5356;BME280;70449;52.486;13.386;2023-10-13T01:11:19;100744.44;;;17.07;100.00
5356;BME280;70449;52.486;13.386;2023-10-13T01:13:45;100754.28;;;16.96;100.00
5356;BME280;70449;52.486;13.386;2023-10-13T01:16:17;100745.00;;;17.21;100.00
5356;BME280;70449;52.486;13.386;2023-10-13T01:18:43;100740.38;;;17.26;100.00
5356;BME280;70449;52.486;13.386;2023-10-13T01:21:15;100747.00;;;17.33;100.00
5356;BME280;70449;52.486;13.386;2023-10-13T01:23:45;100737.47;;;17.43;100.00
5356;BME280;70449;52.486;13.386;2023-10-13T01:26:13;100743.28;;;17.50;100.00
5356;BME280;70449;52.486;13.386;2023-10-13T01:28:47;100739.31;;;17.39;100.00
5356;BME280;70449;52.486;13.386;2023-10-13T01:31:15;100751.00;;;17.23;100.00
5356;BME280;70449;52.486;13.386;2023-10-13T01:33:51;100753.72;;;17.32;100.00
5356;BME280;70449;52.486;13.386;2023-10-13T01:36:21;100757.69;;;17.22;100.00
5356;BME280;70449;52.486;13.386;2023-10-13T01:38:49;100750.28;;;17.14;100.00
5356;BME280;70449;52.486;13.386;2023-10-13T01:41:20;100756.19;;;17.46;100.00
5356;BME280;70449;52.486;13.386;2023-10-13T01:43:48;100749.72;;;17.42;100.00
5356;BME280;70449;52.486;13.386;2023-10-13T01:46:15;100749.03;;;17.24;100.00
5356;BME280;70449;52.486;13.386;2023-10-13T01:48:45;100742.56;;;17.41;100.00
5356;BME280;70449;52.486;13.386;2023-10-13T01:51:12;100750.47;;;17.09;100.00
5356;BME280;70449;52.486;13.386;2023-10-13T01:53:40;100749.44;;;17.14;100.00
5356;BME280;70449;52.486;13.386;2023-10-13T01:56:09;100747.81;;;17.34;100.00
5356;BME280;70449;52.486;13.386;2023-10-13T01:58:40;100742.41;;;17.37;100.00
5356;BME280;70449;52.486;13.386;2023-10-13T02:01:13;100742.28;;;17.34;100.00
5356;BME280;70449;52.486;13.386;2023-10-13T02:03:52;100742.56;;;17.41;100.00
5356;BME280;70449;52.486;13.386;2023-10-13T02:06:29;100742.56;;;17.41;100.00
5356;BME280;70449;52.486;13.386;2023-10-13T02:09:03;100746.88;;;17.30;100.00
5356;BME280;70449;52.486;13.386;2023-10-13T02:11:39;100740.06;;;17.06;100.00
5356;BME280;70449;52.486;13.386;2023-10-13T02:14:07;100730.41;;;17.12;100.00
5356;BME280;70449;52.486;13.386;2023-10-13T02:16:36;100721.47;;;17.07;100.00
5356;BME280;70449;52.486;13.386;2023-10-13T02:19:04;100716.66;;;17.37;100.00
5356;BME280;70449;52.486;13.386;2023-10-13T02:21:31;100712.84;;;17.08;100.00
5356;BME280;70449;52.486;13.386;2023-10-13T02:24:06;100712.69;;;17.05;100.00
5356;BME280;70449;52.486;13.386;2023-10-13T02:26:40;100702.69;;;17.12;100.00
5356;BME280;70449;52.486;13.386;2023-10-13T02:29:07;100707.69;;;17.19;100.00
5356;BME280;70449;52.486;13.386;2023-10-13T02:31:35;100706.56;;;17.20;100.00
5356;BME280;70449;52.486;13.386;2023-10-13T02:34:04;100714.56;;;17.34;100.00
5356;BME280;70449;52.486;13.386;2023-10-13T02:36:34;100708.34;;;17.37;100.00
5356;BME280;70449;52.486;13.386;2023-10-13T02:39:13;100698.22;;;17.41;100.00
5356;BME280;70449;52.486;13.386;2023-10-13T02:41:41;100700.75;;;17.13;100.00
5356;BME280;70449;52.486;13.386;2023-10-13T02:44:14;100704.94;;;16.98;100.00
5356;BME280;70449;52.486;13.386;2023-10-13T02:46:52;100701.88;;;17.33;100.00
5356;BME280;70449;52.486;13.386;2023-10-13T02:49:21;100693.34;;;17.38;100.00
5356;BME280;70449;52.486;13.386;2023-10-13T02:51:47;100691.13;;;17.31;100.00
5356;BME280;70449;52.486;13.386;2023-10-13T02:54:15;100685.81;;;17.26;100.00
5356;BME280;70449;52.486;13.386;2023-10-13T02:56:45;100698.78;;;17.13;100.00
5356;BME280;70449;52.486;13.386;2023-10-13T02:59:22;100685.03;;;17.38;100.00
5356;BME280;70449;52.486;13.386;2023-10-13T03:02:00;100685.16;;;17.08;100.00
5356;BME280;70449;52.486;13.386;2023-10-13T03:04:32;100680.13;;;17.22;100.00
5356;BME280;70449;52.486;13.386;2023-10-13T03:06:59;100674.41;;;17.40;100.00
5356;BME280;70449;52.486;13.386;2023-10-13T03:09:26;100674.69;;;17.47;100.00
5356;BME280;70449;52.486;13.386;2023-10-13T03:11:55;100668.25;;;17.67;100.00
5356;BME280;70449;52.486;13.386;2023-10-13T03:14:23;100668.88;;;17.40;100.00
5356;BME280;70449;52.486;13.386;2023-10-13T03:16:51;100667.47;;;17.34;100.00
5356;BME280;70449;52.486;13.386;2023-10-13T03:19:19;100650.47;;;17.68;100.00
5356;BME280;70449;52.486;13.386;2023-10-13T03:21:45;100644.22;;;17.59;100.00
5356;BME280;70449;52.486;13.386;2023-10-13T03:24:21;100643.53;;;17.62;100.00
5356;BME280;70449;52.486;13.386;2023-10-13T03:27:00;100642.41;;;16.97;100.00
5356;BME280;70449;52.486;13.386;2023-10-13T03:29:36;100635.19;;;17.50;100.00
5356;BME280;70449;52.486;13.386;2023-10-13T03:32:05;100628.28;;;17.56;100.00
5356;BME280;70449;52.486;13.386;2023-10-13T03:34:38;100626.56;;;17.18;100.00
5356;BME280;70449;52.486;13.386;2023-10-13T03:37:16;100618.78;;;17.45;100.00
5356;BME280;70449;52.486;13.386;2023-10-13T03:39:46;100616.28;;;17.52;100.00
5356;BME280;70449;52.486;13.386;2023-10-13T03:42:15;100612.81;;;17.55;100.00
5356;BME280;70449;52.486;13.386;2023-10-13T03:44:46;100612.22;;;17.50;100.00
5356;BME280;70449;52.486;13.386;2023-10-13T03:47:13;100607.28;;;17.67;100.00
5356;BME280;70449;52.486;13.386;2023-10-13T03:49:53;100610.88;;;17.80;100.00
5356;BME280;70449;52.486;13.386;2023-10-13T03:52:41;100604.50;;;17.55;100.00
5356;BME280;70449;52.486;13.386;2023-10-13T03:55:08;100610.03;;;17.55;100.00
5356;BME280;70449;52.486;13.386;2023-10-13T03:57:45;100607.22;;;17.88;100.00
5356;BME280;70449;52.486;13.386;2023-10-13T04:00:16;100599.88;;;17.59;100.00
5356;BME280;70449;52.486;13.386;2023-10-13T04:02:49;100604.75;;;17.87;100.00
5356;BME280;70449;52.486;13.386;2023-10-13T04:05:31;100589.66;;;17.39;100.00
5356;BME280;70449;52.486;13.386;2023-10-13T04:08:05;100586.41;;;17.82;100.00
5356;BME280;70449;52.486;13.386;2023-10-13T04:10:49;100597.75;;;18.02;100.00
5356;BME280;70449;52.486;13.386;2023-10-13T04:13:36;100593.41;;;17.55;100.00
5356;BME280;70449;52.486;13.386;2023-10-13T04:16:20;100594.97;;;17.32;100.00
5356;BME280;70449;52.486;13.386;2023-10-13T04:19:05;100597.28;;;17.30;100.00
5356;BME280;70449;52.486;13.386;2023-10-13T04:21:37;100598.94;;;17.55;100.00
5356;BME280;70449;52.486;13.386;2023-10-13T04:24:09;100595.41;;;17.21;100.00
5356;BME280;70449;52.486;13.386;2023-10-13T04:27:00;100592.66;;;17.34;100.00
5356;BME280;70449;52.486;13.386;2023-10-13T04:29:45;100588.88;;;17.38;100.00
5356;BME280;70449;52.486;13.386;2023-10-13T04:32:18;100581.31;;;17.14;100.00
5356;BME280;70449;52.486;13.386;2023-10-13T04:34:55;100571.34;;;17.13;100.00
5356;BME280;70449;52.486;13.386;2023-10-13T04:37:34;100576.03;;;17.34;100.00
5356;BME280;70449;52.486;13.386;2023-10-13T04:40:15;100570.00;;;17.19;100.00
5356;BME280;70449;52.486;13.386;2023-10-13T04:42:46;100560.38;;;17.75;100.00
5356;BME280;70449;52.486;13.386;2023-10-13T04:45:18;100561.28;;;17.66;100.00
5356;BME280;70449;52.486;13.386;2023-10-13T04:48:05;100550.34;;;17.70;100.00
5356;BME280;70449;52.486;13.386;2023-10-13T04:51:00;100555.75;;;17.66;100.00
5356;BME280;70449;52.486;13.386;2023-10-13T04:53:59;100550.44;;;17.49;100.00
5356;BME280;70449;52.486;13.386;2023-10-13T04:56:37;100563.56;;;17.40;100.00
5356;BME280;70449;52.486;13.386;2023-10-13T04:59:22;100556.22;;;17.56;100.00
5356;BME280;70449;52.486;13.386;2023-10-13T05:02:26;100556.09;;;17.77;100.00
5356;BME280;70449;52.486;13.386;2023-10-13T05:05:11;100552.41;;;17.61;100.00
5356;BME280;70449;52.486;13.386;2023-10-13T05:08:09;100553.44;;;17.56;100.00
5356;BME280;70449;52.486;13.386;2023-10-13T05:10:53;100545.13;;;17.44;100.00
5356;BME280;70449;52.486;13.386;2023-10-13T05:13:39;100556.00;;;17.74;100.00
5356;BME280;70449;52.486;13.386;2023-10-13T05:16:33;100556.69;;;17.71;100.00
5356;BME280;70449;52.486;13.386;2023-10-13T05:19:19;100545.84;;;17.78;100.00
5356;BME280;70449;52.486;13.386;2023-10-13T05:22:04;100552.41;;;17.73;100.00
5356;BME280;70449;52.486;13.386;2023-10-13T05:24:49;100550.31;;;17.45;100.00
5356;BME280;70449;52.486;13.386;2023-10-13T05:27:34;100547.88;;;17.44;100.00
5356;BME280;70449;52.486;13.386;2023-10-13T05:30:30;100543.53;;;17.80;100.00
5356;BME280;70449;52.486;13.386;2023-10-13T05:33:14;100544.72;;;17.79;100.00
5356;BME280;70449;52.486;13.386;2023-10-13T05:36:00;100546.19;;;17.64;100.00
5356;BME280;70449;52.486;13.386;2023-10-13T05:38:45;100536.81;;;17.68;100.00
5356;BME280;70449;52.486;13.386;2023-10-13T05:41:30;100533.78;;;18.10;100.00
5356;BME280;70449;52.486;13.386;2023-10-13T05:44:14;100543.53;;;17.80;100.00
5356;BME280;70449;52.486;13.386;2023-10-13T05:47:04;100547.91;;;18.18;100.00
5356;BME280;70449;52.486;13.386;2023-10-13T05:49:49;100538.53;;;18.22;100.00
5356;BME280;70449;52.486;13.386;2023-10-13T05:52:20;100547.44;;;18.16;100.00
5356;BME280;70449;52.486;13.386;2023-10-13T05:55:01;100554.59;;;18.04;100.00
5356;BME280;70449;52.486;13.386;2023-10-13T05:57:46;100540.06;;;17.95;100.00
5356;BME280;70449;52.486;13.386;2023-10-13T06:00:30;100549.75;;;17.52;100.00
5356;BME280;70449;52.486;13.386;2023-10-13T06:03:15;100537.75;;;17.73;100.00
5356;BME280;70449;52.486;13.386;2023-10-13T06:06:08;100530.00;;;17.78;100.00
5356;BME280;70449;52.486;13.386;2023-10-13T06:08:54;100542.56;;;18.25;100.00
5356;BME280;70449;52.486;13.386;2023-10-13T06:11:39;100532.19;;;17.60;100.00
5356;BME280;70449;52.486;13.386;2023-10-13T06:14:24;100515.13;;;17.83;100.00
5356;BME280;70449;52.486;13.386;2023-10-13T06:17:08;100519.13;;;18.50;100.00
5356;BME280;70449;52.486;13.386;2023-10-13T06:19:53;100517.97;;;17.74;100.00
5356;BME280;70449;52.486;13.386;2023-10-13T06:22:38;100522.75;;;17.86;100.00
5356;BME280;70449;52.486;13.386;2023-10-13T06:25:23;100515.50;;;18.34;100.00
5356;BME280;70449;52.486;13.386;2023-10-13T06:28:08;100521.34;;;17.92;100.00
5356;BME280;70449;52.486;13.386;2023-10-13T06:30:58;100520.75;;;17.99;100.00
5356;BME280;70449;52.486;13.386;2023-10-13T06:33:27;100526.88;;;18.04;100.00
5356;BME280;70449;52.486;13.386;2023-10-13T06:35:57;100526.22;;;17.83;100.00
5356;BME280;70449;52.486;13.386;2023-10-13T06:38:24;100522.03;;;17.77;100.00
5356;BME280;70449;52.486;13.386;2023-10-13T06:40:58;100522.97;;;17.81;100.00
5356;BME280;70449;52.486;13.386;2023-10-13T06:43:24;100529.34;;;17.81;100.00
5356;BME280;70449;52.486;13.386;2023-10-13T06:46:00;100524.22;;;17.71;100.00
5356;BME280;70449;52.486;13.386;2023-10-13T06:48:27;100528.72;;;17.63;100.00
5356;BME280;70449;52.486;13.386;2023-10-13T06:50:59;100523.66;;;17.78;100.00
5356;BME280;70449;52.486;13.386;2023-10-13T06:53:31;100522.47;;;17.66;100.00
5356;BME280;70449;52.486;13.386;2023-10-13T06:56:06;100514.59;;;18.18;100.00
5356;BME280;70449;52.486;13.386;2023-10-13T06:58:35;100514.81;;;18.25;100.00
5356;BME280;70449;52.486;13.386;2023-10-13T07:01:07;100509.09;;;18.46;100.00
5356;BME280;70449;52.486;13.386;2023-10-13T07:03:41;100511.16;;;18.08;100.00
5356;BME280;70449;52.486;13.386;2023-10-13T07:06:09;100511.59;;;18.10;100.00
5356;BME280;70449;52.486;13.386;2023-10-13T07:08:38;100505.91;;;18.59;100.00
5356;BME280;70449;52.486;13.386;2023-10-13T07:11:06;100505.91;;;18.59;100.00
5356;BME280;70449;52.486;13.386;2023-10-13T07:13:40;100510.25;;;18.73;100.00
5356;BME280;70449;52.486;13.386;2023-10-13T07:16:15;100517.59;;;18.12;100.00
5356;BME280;70449;52.486;13.386;2023-10-13T07:18:44;100502.22;;;18.55;100.00
5356;BME280;70449;52.486;13.386;2023-10-13T07:21:19;100510.13;;;18.41;100.00
5356;BME280;70449;52.486;13.386;2023-10-13T07:23:50;100515.44;;;18.46;100.00
5356;BME280;70449;52.486;13.386;2023-10-13T07:26:35;100507.25;;;18.66;100.00
5356;BME280;70449;52.486;13.386;2023-10-13T07:29:09;100507.25;;;18.66;100.00
5356;BME280;70449;52.486;13.386;2023-10-13T07:31:36;100500.00;;;18.89;100.00
5356;BME280;70449;52.486;13.386;2023-10-13T07:34:07;100496.16;;;18.94;100.00
5356;BME280;70449;52.486;13.386;2023-10-13T07:36:39;100492.22;;;18.95;100.00
5356;BME280;70449;52.486;13.386;2023-10-13T07:39:09;100495.69;;;18.76;100.00
5356;BME280;70449;52.486;13.386;2023-10-13T07:41:48;100485.84;;;18.94;100.00
5356;BME280;70449;52.486;13.386;2023-10-13T07:44:22;100480.16;;;19.35;100.00
5356;BME280;70449;52.486;13.386;2023-10-13T07:46:54;100478.59;;;19.21;100.00
5356;BME280;70449;52.486;13.386;2023-10-13T07:49:37;100482.19;;;19.54;100.00
5356;BME280;70449;52.486;13.386;2023-10-13T07:52:07;100489.03;;;19.40;100.00
5356;BME280;70449;52.486;13.386;2023-10-13T07:54:50;100490.00;;;19.32;100.00
5356;BME280;70449;52.486;13.386;2023-10-13T07:57:27;100488.41;;;19.31;100.00
5356;BME280;70449;52.486;13.386;2023-10-13T07:59:56;100480.22;;;19.38;100.00
5356;BME280;70449;52.486;13.386;2023-10-13T08:02:34;100468.59;;;19.17;100.00
5356;BME280;70449;52.486;13.386;2023-10-13T08:05:14;100471.72;;;19.15;100.00
5356;BME280;70449;52.486;13.386;2023-10-13T08:07:50;100472.50;;;19.47;100.00
5356;BME280;70449;52.486;13.386;2023-10-13T08:10:18;100475.78;;;19.34;100.00
5356;BME280;70449;52.486;13.386;2023-10-13T08:12:52;100463.25;;;19.59;100.00
5356;BME280;70449;52.486;13.386;2023-10-13T08:15:20;100462.53;;;19.78;100.00
5356;BME280;70449;52.486;13.386;2023-10-13T08:17:58;100455.22;;;19.38;100.00
5356;BME280;70449;52.486;13.386;2023-10-13T08:20:31;100457.53;;;19.36;100.00
5356;BME280;70449;52.486;13.386;2023-10-13T08:23:04;100454.41;;;19.89;100.00
5356;BME280;70449;52.486;13.386;2023-10-13T08:25:40;100460.44;;;19.91;100.00
5356;BME280;70449;52.486;13.386;2023-10-13T08:28:28;100449.72;;;20.28;100.00
5356;BME280;70449;52.486;13.386;2023-10-13T08:31:20;100451.00;;;19.96;100.00
5356;BME280;70449;52.486;13.386;2023-10-13T08:33:48;100443.13;;;20.36;100.00
5356;BME280;70449;52.486;13.386;2023-10-13T08:36:15;100448.06;;;20.47;100.00
5356;BME280;70449;52.486;13.386;2023-10-13T08:38:54;100448.97;;;19.92;100.00
5356;BME280;70449;52.486;13.386;2023-10-13T08:41:22;100441.78;;;20.11;100.00
5356;BME280;70449;52.486;13.386;2023-10-13T08:44:03;100437.00;;;20.70;100.00
5356;BME280;70449;52.486;13.386;2023-10-13T08:46:35;100429.13;;;20.52;100.00
5356;BME280;70449;52.486;13.386;2023-10-13T08:49:21;100429.03;;;20.49;100.00
5356;BME280;70449;52.486;13.386;2023-10-13T08:51:50;100414.97;;;20.61;100.00
5356;BME280;70449;52.486;13.386;2023-10-13T08:54:35;100414.84;;;20.54;100.00
5356;BME280;70449;52.486;13.386;2023-10-13T08:57:11;100412.69;;;20.47;100.00
5356;BME280;70449;52.486;13.386;2023-10-13T09:00:00;100400.41;;;20.48;100.00
5356;BME280;70449;52.486;13.386;2023-10-13T09:02:41;100398.56;;;20.56;100.00
5356;BME280;70449;52.486;13.386;2023-10-13T09:05:46;100411.59;;;20.32;100.00
5356;BME280;70449;52.486;13.386;2023-10-13T09:08:27;100404.50;;;20.35;100.00
5356;BME280;70449;52.486;13.386;2023-10-13T09:11:03;100401.19;;;20.49;100.00
5356;BME280;70449;52.486;13.386;2023-10-13T09:13:38;100405.00;;;20.60;100.00
5356;BME280;70449;52.486;13.386;2023-10-13T09:16:14;100399.81;;;20.58;100.00
5356;BME280;70449;52.486;13.386;2023-10-13T09:19:08;100401.25;;;20.72;100.00
5356;BME280;70449;52.486;13.386;2023-10-13T09:21:41;100397.75;;;20.55;100.00
5356;BME280;70449;52.486;13.386;2023-10-13T09:24:20;100401.75;;;20.77;100.00
5356;BME280;70449;52.486;13.386;2023-10-13T09:26:59;100386.03;;;20.46;100.00
5356;BME280;70449;52.486;13.386;2023-10-13T09:29:27;100390.09;;;20.10;100.00
5356;BME280;70449;52.486;13.386;2023-10-13T09:32:03;100379.00;;;20.52;100.00
5356;BME280;70449;52.486;13.386;2023-10-13T09:34:30;100375.28;;;20.45;100.00
5356;BME280;70449;52.486;13.386;2023-10-13T09:37:00;100374.81;;;20.43;100.00
5356;BME280;70449;52.486;13.386;2023-10-13T09:39:30;100367.38;;;20.27;100.00
5356;BME280;70449;52.486;13.386;2023-10-13T09:42:07;100364.16;;;20.25;100.00
5356;BME280;70449;52.486;13.386;2023-10-13T09:44:36;100353.81;;;20.26;100.00
5356;BME280;70449;52.486;13.386;2023-10-13T09:47:11;100350.25;;;20.25;100.00
5356;BME280;70449;52.486;13.386;2023-10-13T09:49:44;100340.09;;;20.56;100.00
5356;BME280;70449;52.486;13.386;2023-10-13T09:52:17;100333.31;;;20.14;100.00
5356;BME280;70449;52.486;13.386;2023-10-13T09:54:59;100334.84;;;20.31;100.00
5356;BME280;70449;52.486;13.386;2023-10-13T09:57:37;100325.25;;;20.29;100.00
5356;BME280;70449;52.486;13.386;2023-10-13T10:00:14;100320.47;;;20.29;100.00
5356;BME280;70449;52.486;13.386;2023-10-13T10:03:12;100323.22;;;20.49;100.00
5356;BME280;70449;52.486;13.386;2023-10-13T10:05:58;100320.47;;;20.29;100.00
5356;BME280;70449;52.486;13.386;2023-10-13T10:08:32;100307.72;;;20.48;100.00
5356;BME280;70449;52.486;13.386;2023-10-13T10:14:39;100312.91;;;20.72;100.00
5356;BME280;70449;52.486;13.386;2023-10-13T10:17:08;100318.06;;;20.70;100.00
5356;BME280;70449;52.486;13.386;2023-10-13T10:19:48;100318.28;;;20.84;100.00
5356;BME280;70449;52.486;13.386;2023-10-13T10:22:27;100302.50;;;20.92;100.00
5356;BME280;70449;52.486;13.386;2023-10-13T10:24:57;100318.94;;;20.74;100.00
5356;BME280;70449;52.486;13.386;2023-10-13T10:27:27;100306.84;;;20.67;100.00
5356;BME280;70449;52.486;13.386;2023-10-13T10:29:55;100307.72;;;20.71;100.00
5356;BME280;70449;52.486;13.386;2023-10-13T10:32:33;100295.41;;;20.72;100.00
5356;BME280;70449;52.486;13.386;2023-10-13T10:35:09;100313.97;;;20.64;100.00
5356;BME280;70449;52.486;13.386;2023-10-13T10:37:41;100307.97;;;20.62;100.00
5356;BME280;70449;52.486;13.386;2023-10-13T10:40:14;100303.47;;;20.54;100.00
5356;BME280;70449;52.486;13.386;2023-10-13T10:42:59;100293.81;;;20.97;100.00
5356;BME280;70449;52.486;13.386;2023-10-13T10:45:27;100308.19;;;20.76;100.00
5356;BME280;70449;52.486;13.386;2023-10-13T10:47:58;100288.59;;;20.69;100.00
5356;BME280;70449;52.486;13.386;2023-10-13T10:50:28;100288.59;;;20.69;100.00
5356;BME280;70449;52.486;13.386;2023-10-13T10:53:04;100275.63;;;20.54;100.00
5356;BME280;70449;52.486;13.386;2023-10-13T10:55:35;100290.34;;;20.77;100.00
5356;BME280;70449;52.486;13.386;2023-10-13T10:58:03;100265.47;;;20.65;100.00
5356;BME280;70449;52.486;13.386;2023-10-13T11:00:32;100267.75;;;20.59;100.00
5356;BME280;70449;52.486;13.386;2023-10-13T11:03:12;100260.09;;;20.79;100.00
5356;BME280;70449;52.486;13.386;2023-10-13T11:05:45;100260.22;;;20.87;100.00
5356;BME280;70449;52.486;13.386;2023-10-13T11:08:23;100251.44;;;20.84;100.00
5356;BME280;70449;52.486;13.386;2023-10-13T11:10:58;100231.63;;;20.90;100.00
5356;BME280;70449;52.486;13.386;2023-10-13T11:13:26;100240.78;;;20.90;100.00
5356;BME280;70449;52.486;13.386;2023-10-13T11:15:57;100243.81;;;21.08;100.00
5356;BME280;70449;52.486;13.386;2023-10-13T11:18:30;100238.47;;;20.96;100.00
5356;BME280;70449;52.486;13.386;2023-10-13T11:21:04;100222.50;;;20.93;100.00
5356;BME280;70449;52.486;13.386;2023-10-13T11:23:33;100229.91;;;21.38;100.00
5356;BME280;70449;52.486;13.386;2023-10-13T11:26:02;100238.56;;;20.76;100.00
5356;BME280;70449;52.486;13.386;2023-10-13T11:28:31;100227.84;;;21.05;100.00
5356;BME280;70449;52.486;13.386;2023-10-13T11:31:00;100231.44;;;21.05;100.00
5356;BME280;70449;52.486;13.386;2023-10-13T11:33:42;100221.25;;;21.47;100.00
5356;BME280;70449;52.486;13.386;2023-10-13T11:36:16;100207.66;;;21.42;100.00
5356;BME280;70449;52.486;13.386;2023-10-13T11:38:48;100209.38;;;21.23;100.00
5356;BME280;70449;52.486;13.386;2023-10-13T11:41:18;100206.56;;;21.23;100.00
5356;BME280;70449;52.486;13.386;2023-10-13T11:43:46;100209.03;;;20.98;100.00
5356;BME280;70449;52.486;13.386;2023-10-13T11:46:32;100199.91;;;21.32;100.00
5356;BME280;70449;52.486;13.386;2023-10-13T11:49:19;100191.31;;;21.44;100.00
5356;BME280;70449;52.486;13.386;2023-10-13T11:51:59;100196.81;;;21.37;100.00
5356;BME280;70449;52.486;13.386;2023-10-13T11:54:42;100184.59;;;21.45;100.00
5356;BME280;70449;52.486;13.386;2023-10-13T11:57:09;100183.09;;;21.55;100.00
5356;BME280;70449;52.486;13.386;2023-10-13T11:59:37;100168.16;;;21.73;100.00
5356;BME280;70449;52.486;13.386;2023-10-13T12:02:13;100174.72;;;21.92;100.00
5356;BME280;70449;52.486;13.386;2023-10-13T12:04:57;100179.03;;;21.86;100.00
5356;BME280;70449;52.486;13.386;2023-10-13T12:07:26;100154.63;;;21.76;100.00
5356;BME280;70449;52.486;13.386;2023-10-13T12:10:11;100153.22;;;21.96;100.00
5356;BME280;70449;52.486;13.386;2023-10-13T12:12:42;100151.28;;;21.96;100.00
5356;BME280;70449;52.486;13.386;2023-10-13T12:15:12;100145.97;;;21.88;100.00
5356;BME280;70449;52.486;13.386;2023-10-13T12:17:52;100148.81;;;21.91;100.00
5356;BME280;70449;52.486;13.386;2023-10-13T12:20:23;100143.72;;;22.04;100.00
5356;BME280;70449;52.486;13.386;2023-10-13T12:23:01;100139.31;;;22.00;100.00
5356;BME280;70449;52.486;13.386;2023-10-13T12:25:41;100133.59;;;22.30;100.00
5356;BME280;70449;52.486;13.386;2023-10-13T12:28:22;100138.44;;;21.92;100.00
5356;BME280;70449;52.486;13.386;2023-10-13T12:30:55;100132.91;;;22.47;100.00
5356;BME280;70449;52.486;13.386;2023-10-13T12:33:25;100114.63;;;22.60;100.00
5356;BME280;70449;52.486;13.386;2023-10-13T12:36:00;100111.38;;;22.51;100.00
5356;BME280;70449;52.486;13.386;2023-10-13T12:38:35;100113.72;;;22.42;100.00
5356;BME280;70449;52.486;13.386;2023-10-13T12:41:38;100099.72;;;22.35;100.00
5356;BME280;70449;52.486;13.386;2023-10-13T12:44:23;100111.66;;;22.32;100.00
5356;BME280;70449;52.486;13.386;2023-10-13T12:47:08;100096.38;;;22.81;100.00
5356;BME280;70449;52.486;13.386;2023-10-13T12:49:53;100097.94;;;22.75;100.00
5356;BME280;70449;52.486;13.386;2023-10-13T12:52:33;100080.38;;;22.71;100.00
5356;BME280;70449;52.486;13.386;2023-10-13T12:55:02;100082.94;;;23.12;100.00
5356;BME280;70449;52.486;13.386;2023-10-13T12:57:39;100082.94;;;23.08;100.00
5356;BME280;70449;52.486;13.386;2023-10-13T13:00:13;100085.16;;;22.74;100.00
5356;BME280;70449;52.486;13.386;2023-10-13T13:02:59;100070.94;;;22.97;100.00
5356;BME280;70449;52.486;13.386;2023-10-13T13:05:36;100069.34;;;23.14;100.00
5356;BME280;70449;52.486;13.386;2023-10-13T13:08:10;100054.19;;;23.15;100.00
5356;BME280;70449;52.486;13.386;2023-10-13T13:10:49;100061.44;;;23.41;100.00
5356;BME280;70449;52.486;13.386;2023-10-13T13:13:16;100049.44;;;23.33;100.00
5356;BME280;70449;52.486;13.386;2023-10-13T13:15:50;100045.47;;;23.48;100.00
5356;BME280;70449;52.486;13.386;2023-10-13T13:18:18;100042.22;;;23.25;100.00
5356;BME280;70449;52.486;13.386;2023-10-13T13:20:45;100041.50;;;23.64;100.00
5356;BME280;70449;52.486;13.386;2023-10-13T13:23:19;100050.25;;;23.64;100.00
5356;BME280;70449;52.486;13.386;2023-10-13T13:25:48;100036.31;;;23.73;100.00